Time;durP1;ratioP1;P1;durP2;ratioP2;P2;SDS_P1;SDS_P2;PMS_P1;PMS_P2;Temp;Humidity;BMP_temperature;BMP_pressure;BME280_temperature;BME280_humidity;BME280_pressure;Samples;Min_cycle;Max_cycle;Signal;HPM_P1;HPM_P2
2023/03/18 00:00:45;;;;;;;31.30;10.90;;;;;;;;;;4989248;28;20035;-63
2023/03/18 00:04:25;;;;;;;27.88;10.15;;;;;;;;;;4979629;28;20152;-65
2023/03/18 00:08:05;;;;;;;29.67;10.68;;;;;;;;;;4985760;28;20044;-67
2023/03/18 00:11:46;;;;;;;32.08;11.38;;;;;;;;;;4987613;28;20085;-64
2023/03/18 00:15:27;;;;;;;30.63;11.85;;;;;;;;;;4986786;28;20042;-63
2023/03/18 00:19:07;;;;;;;31.83;11.20;;;;;;;;;;4978797;28;20046;-65
2023/03/18 00:22:49;;;;;;;27.55;11.20;;;;;;;;;;4985063;28;20109;-64
2023/03/18 00:26:29;;;;;;;33.17;10.90;;;;;;;;;;4980207;28;20470;-67
2023/03/18 00:30:11;;;;;;;40.55;13.48;;;;;;;;;;4983502;28;20630;-63
2023/03/18 00:33:49;;;;;;;28.08;11.98;;;;;;;;;;4979928;28;20050;-69
2023/03/18 00:37:30;;;;;;;32.25;12.18;;;;;;;;;;4983484;28;20050;-63
2023/03/18 00:41:10;;;;;;;25.60;10.23;;;;;;;;;;4979220;28;20050;-63
2023/03/18 00:44:52;;;;;;;28.52;10.18;;;;;;;;;;4980143;28;20311;-64
2023/03/18 00:48:32;;;;;;;26.20;10.07;;;;;;;;;;4977857;28;20506;-65
2023/03/18 00:52:14;;;;;;;24.38;9.88;;;;;;;;;;4982793;28;20050;-66
2023/03/18 00:55:54;;;;;;;25.23;9.02;;;;;;;;;;4970030;28;20212;-65
2023/03/18 00:59:36;;;;;;;23.85;8.77;;;;;;;;;;4976887;28;20045;-62
2023/03/18 01:03:17;;;;;;;28.92;9.63;;;;;;;;;;4981734;28;20038;-67
2023/03/18 01:07:00;;;;;;;27.92;8.90;;;;;;;;;;4986204;28;20136;-64
2023/03/18 01:10:39;;;;;;;22.52;8.55;;;;;;;;;;4982472;28;20265;-63
2023/03/18 01:14:20;;;;;;;30.73;9.32;;;;;;;;;;4985909;28;20057;-67
2023/03/18 01:18:00;;;;;;;26.27;8.60;;;;;;;;;;4983751;28;20042;-63
2023/03/18 01:21:42;;;;;;;24.08;9.27;;;;;;;;;;4982236;28;20058;-64
2023/03/18 01:25:24;;;;;;;20.63;8.20;;;;;;;;;;4983230;28;20054;-63
2023/03/18 01:29:04;;;;;;;29.23;7.68;;;;;;;;;;4974484;28;20063;-62
2023/03/18 01:32:46;;;;;;;23.45;7.85;;;;;;;;;;4983589;28;20050;-65
2023/03/18 01:36:27;;;;;;;23.45;7.88;;;;;;;;;;4974889;28;20046;-64
2023/03/18 01:40:06;;;;;;;22.83;7.65;;;;;;;;;;4978526;28;20518;-62
2023/03/18 01:43:33;;;;;;;20.20;7.05;;;;;;;;;;4984906;28;20065;-66
2023/03/18 01:46:36;;;;;;;20.55;8.23;;;;;;;;;;4977323;28;20566;-65
2023/03/18 01:50:23;;;;;;;21.73;7.95;;;;;;;;;;4988513;28;20072;-63
2023/03/18 01:53:43;;;;;;;;;;;;;;;;;;4975258;28;20472;-64
2023/03/18 01:57:24;;;;;;;24.67;8.57;;;;;;;;;;4976294;28;19921;-63
2023/03/18 02:01:04;;;;;;;27.48;8.95;;;;;;;;;;4980904;28;20046;-63
2023/03/18 02:04:44;;;;;;;21.70;8.68;;;;;;;;;;4977080;28;20369;-66
2023/03/18 02:08:25;;;;;;;28.75;9.60;;;;;;;;;;4983593;28;20060;-63
2023/03/18 02:12:05;;;;;;;30.17;9.43;;;;;;;;;;4978404;28;20050;-64
2023/03/18 02:15:46;;;;;;;22.50;9.43;;;;;;;;;;4979064;28;20046;-64
2023/03/18 02:19:27;;;;;;;20.00;9.10;;;;;;;;;;4982470;28;20406;-66
2023/03/18 02:23:11;;;;;;;22.83;10.13;;;;;;;;;;4982493;28;20391;-62
2023/03/18 02:26:34;;;;;;;24.10;8.43;;;;;;;;;;4976848;28;20403;-62
2023/03/18 02:30:15;;;;;;;22.67;7.80;;;;;;;;;;4981079;28;20051;-63
2023/03/18 02:33:55;;;;;;;24.15;8.18;;;;;;;;;;4980549;28;20491;-62
2023/03/18 02:37:35;;;;;;;25.35;7.03;;;;;;;;;;4974840;28;20050;-64
2023/03/18 02:41:16;;;;;;;19.90;7.10;;;;;;;;;;4978765;28;20571;-64
2023/03/18 02:44:56;;;;;;;20.27;7.75;;;;;;;;;;4977014;28;20126;-64
2023/03/18 02:48:36;;;;;;;18.27;7.28;;;;;;;;;;4978189;28;20506;-63
2023/03/18 02:52:17;;;;;;;17.35;7.15;;;;;;;;;;4982443;28;20125;-63
2023/03/18 02:55:58;;;;;;;29.98;7.57;;;;;;;;;;4981002;28;20054;-64
2023/03/18 02:59:40;;;;;;;21.50;7.10;;;;;;;;;;4982622;28;20530;-62
2023/03/18 03:03:20;;;;;;;20.98;7.50;;;;;;;;;;4976885;28;20115;-63
2023/03/18 03:07:01;;;;;;;22.52;7.43;;;;;;;;;;4987106;28;20658;-62
2023/03/18 03:10:42;;;;;;;22.42;7.20;;;;;;;;;;4977381;28;20054;-63
2023/03/18 03:14:24;;;;;;;20.95;7.50;;;;;;;;;;4987492;28;20054;-63
2023/03/18 03:18:05;;;;;;;24.27;8.35;;;;;;;;;;4978158;28;20148;-62
2023/03/18 03:21:47;;;;;;;17.25;7.20;;;;;;;;;;4982940;28;20145;-65
2023/03/18 03:25:27;;;;;;;17.30;7.35;;;;;;;;;;4986390;28;20057;-64
2023/03/18 03:29:08;;;;;;;19.98;7.75;;;;;;;;;;4986661;28;20130;-62
2023/03/18 03:32:48;;;;;;;23.83;7.65;;;;;;;;;;4985999;28;20396;-65
2023/03/18 03:36:28;;;;;;;26.38;7.78;;;;;;;;;;4984963;28;20487;-64
2023/03/18 03:40:08;;;;;;;25.65;7.90;;;;;;;;;;4984125;28;20585;-64
2023/03/18 03:43:52;;;;;;;22.65;7.45;;;;;;;;;;4979754;28;20204;-63
2023/03/18 03:47:32;;;;;;;25.80;7.57;;;;;;;;;;4981412;28;20042;-65
2023/03/18 03:51:13;;;;;;;20.40;7.65;;;;;;;;;;4987814;28;20422;-63
2023/03/18 03:54:54;;;;;;;18.48;7.43;;;;;;;;;;4987766;28;20050;-65
2023/03/18 03:58:33;;;;;;;17.73;7.57;;;;;;;;;;4984491;28;20493;-63
2023/03/18 04:02:14;;;;;;;22.73;7.07;;;;;;;;;;4986548;28;20046;-63
2023/03/18 04:05:55;;;;;;;21.70;7.78;;;;;;;;;;4984061;28;20179;-65
2023/03/18 04:09:35;;;;;;;14.60;7.10;;;;;;;;;;4984956;28;20490;-65
2023/03/18 04:13:15;;;;;;;21.70;7.40;;;;;;;;;;4982984;28;20450;-66
2023/03/18 04:16:56;;;;;;;18.30;7.18;;;;;;;;;;4983815;28;20061;-63
2023/03/18 04:20:36;;;;;;;19.02;6.70;;;;;;;;;;4983443;28;20125;-64
2023/03/18 04:24:16;;;;;;;20.95;7.03;;;;;;;;;;4982344;28;20050;-65
2023/03/18 04:27:56;;;;;;;20.85;6.50;;;;;;;;;;4984315;28;20050;-63
2023/03/18 04:31:36;;;;;;;22.25;6.78;;;;;;;;;;4978614;28;20160;-63
2023/03/18 04:35:17;;;;;;;25.85;6.85;;;;;;;;;;4981299;28;20046;-63
2023/03/18 04:38:59;;;;;;;20.80;7.10;;;;;;;;;;4985105;28;20121;-62
2023/03/18 04:42:39;;;;;;;23.60;7.22;;;;;;;;;;4985923;28;20046;-64
2023/03/18 04:46:19;;;;;;;15.57;6.07;;;;;;;;;;4982605;28;20050;-64
2023/03/18 04:50:00;;;;;;;20.50;7.07;;;;;;;;;;4978453;28;20094;-62
2023/03/18 04:53:40;;;;;;;18.00;6.70;;;;;;;;;;4987476;28;20070;-65
2023/03/18 04:57:20;;;;;;;21.33;7.15;;;;;;;;;;4973648;28;20042;-65
2023/03/18 05:01:03;;;;;;;17.98;6.97;;;;;;;;;;4983094;28;20043;-63
2023/03/18 05:04:42;;;;;;;21.08;6.45;;;;;;;;;;4984112;28;20053;-63
2023/03/18 05:08:24;;;;;;;19.27;6.88;;;;;;;;;;4984902;28;20161;-64
2023/03/18 05:12:04;;;;;;;20.85;7.13;;;;;;;;;;4979078;28;20050;-65
2023/03/18 05:15:46;;;;;;;16.58;6.75;;;;;;;;;;4982653;28;20046;-63
2023/03/18 05:19:27;;;;;;;18.92;6.75;;;;;;;;;;4985223;28;20049;-63
2023/03/18 05:23:07;;;;;;;20.08;6.85;;;;;;;;;;4985269;28;20054;-64
2023/03/18 05:26:48;;;;;;;18.67;7.15;;;;;;;;;;4978252;28;20093;-64
2023/03/18 05:30:28;;;;;;;15.02;6.47;;;;;;;;;;4971009;28;20086;-63
2023/03/18 05:34:09;;;;;;;13.88;6.38;;;;;;;;;;4984426;28;20082;-63
2023/03/18 05:37:50;;;;;;;15.77;6.90;;;;;;;;;;4977485;28;20486;-62
2023/03/18 05:41:30;;;;;;;18.73;6.10;;;;;;;;;;4976568;28;20038;-63
2023/03/18 05:45:11;;;;;;;15.38;4.88;;;;;;;;;;4980182;28;20105;-64
2023/03/18 05:48:51;;;;;;;15.00;5.88;;;;;;;;;;4973012;28;20086;-64
2023/03/18 05:52:31;;;;;;;15.05;5.82;;;;;;;;;;4981343;28;20450;-63
2023/03/18 05:56:13;;;;;;;18.30;5.85;;;;;;;;;;4980839;28;20296;-64
2023/03/18 05:59:52;;;;;;;18.45;6.30;;;;;;;;;;4984755;28;20066;-64
2023/03/18 06:03:33;;;;;;;13.50;5.53;;;;;;;;;;4984249;28;20461;-63
2023/03/18 06:07:12;;;;;;;18.70;5.90;;;;;;;;;;4980470;28;20042;-63
2023/03/18 06:10:53;;;;;;;13.52;5.30;;;;;;;;;;4981474;28;20054;-64
2023/03/18 06:14:33;;;;;;;15.95;5.13;;;;;;;;;;4979740;28;20994;-63
2023/03/18 06:18:13;;;;;;;11.57;4.57;;;;;;;;;;4981308;28;20046;-63
2023/03/18 06:21:54;;;;;;;15.75;5.95;;;;;;;;;;4981775;28;20098;-63
2023/03/18 06:25:37;;;;;;;14.40;5.82;;;;;;;;;;4985113;28;20196;-64
2023/03/18 06:29:17;;;;;;;13.73;5.53;;;;;;;;;;4983258;28;20078;-62
2023/03/18 06:32:57;;;;;;;25.63;5.72;;;;;;;;;;4977245;28;20050;-62
2023/03/18 06:36:37;;;;;;;19.10;5.72;;;;;;;;;;4981693;28;20073;-62
2023/03/18 06:40:18;;;;;;;13.52;4.55;;;;;;;;;;4971705;28;20050;-64
2023/03/18 06:43:58;;;;;;;13.30;3.80;;;;;;;;;;4978963;28;20120;-65
2023/03/18 06:47:41;;;;;;;7.70;3.20;;;;;;;;;;4974672;28;20663;-64
2023/03/18 06:51:21;;;;;;;7.70;3.42;;;;;;;;;;4978841;28;20065;-64
2023/03/18 06:55:03;;;;;;;9.55;3.10;;;;;;;;;;4980625;28;20046;-64
2023/03/18 06:58:45;;;;;;;15.43;3.40;;;;;;;;;;4980775;28;21018;-63
2023/03/18 07:02:26;;;;;;;8.63;3.20;;;;;;;;;;4977712;28;20061;-63
2023/03/18 07:06:09;;;;;;;6.07;2.50;;;;;;;;;;4970802;28;20054;-62
2023/03/18 07:09:49;;;;;;;9.23;2.80;;;;;;;;;;4981250;28;20117;-62
2023/03/18 07:13:29;;;;;;;5.68;3.00;;;;;;;;;;4971874;28;20196;-65
2023/03/18 07:17:09;;;;;;;8.80;2.90;;;;;;;;;;4977609;28;20379;-62
2023/03/18 07:20:49;;;;;;;8.73;2.60;;;;;;;;;;4978838;28;20046;-63
2023/03/18 07:24:30;;;;;;;16.83;3.80;;;;;;;;;;4983783;28;20038;-64
2023/03/18 07:28:11;;;;;;;8.80;3.90;;;;;;;;;;4983186;28;20046;-63
2023/03/18 07:31:51;;;;;;;9.18;3.70;;;;;;;;;;4980176;28;20074;-64
2023/03/18 07:35:32;;;;;;;8.13;3.35;;;;;;;;;;4981309;28;20042;-64
2023/03/18 07:39:12;;;;;;;12.48;3.45;;;;;;;;;;4979107;28;20057;-64
2023/03/18 07:42:54;;;;;;;11.18;2.80;;;;;;;;;;4980107;28;20490;-63
2023/03/18 07:46:35;;;;;;;7.93;2.90;;;;;;;;;;4973864;28;20240;-63
2023/03/18 07:50:17;;;;;;;8.55;2.70;;;;;;;;;;4984285;28;20046;-63
2023/03/18 07:53:57;;;;;;;12.82;2.97;;;;;;;;;;4984017;28;20398;-66
2023/03/18 07:57:37;;;;;;;10.73;2.72;;;;;;;;;;4988406;28;20052;-63
2023/03/18 08:01:18;;;;;;;13.25;2.28;;;;;;;;;;4975097;28;20453;-63
2023/03/18 08:04:58;;;;;;;5.80;2.00;;;;;;;;;;4984025;28;20112;-66
2023/03/18 08:08:39;;;;;;;5.45;2.00;;;;;;;;;;4985232;28;20435;-62
2023/03/18 08:12:18;;;;;;;4.55;2.00;;;;;;;;;;4976363;28;20104;-63
2023/03/18 08:15:59;;;;;;;14.63;2.15;;;;;;;;;;4984043;28;20046;-62
2023/03/18 08:19:39;;;;;;;8.98;1.90;;;;;;;;;;4977432;28;20046;-63
2023/03/18 08:23:19;;;;;;;6.65;2.08;;;;;;;;;;4975264;28;20450;-63
2023/03/18 08:27:00;;;;;;;5.70;2.45;;;;;;;;;;4983631;28;20066;-64
2023/03/18 08:30:42;;;;;;;7.97;1.77;;;;;;;;;;4988849;28;20061;-62
2023/03/18 08:34:22;;;;;;;5.70;2.00;;;;;;;;;;4983218;28;20042;-65
2023/03/18 08:38:04;;;;;;;6.63;1.90;;;;;;;;;;4985056;28;20555;-63
2023/03/18 08:41:45;;;;;;;11.02;2.78;;;;;;;;;;4975433;28;20509;-66
2023/03/18 08:45:27;;;;;;;9.63;2.58;;;;;;;;;;4985334;28;20130;-66
2023/03/18 08:48:26;;;;;;;9.07;2.13;;;;;;;;;;4982117;28;20047;-68
2023/03/18 08:50:54;;;;;;;8.60;3.17;;;;;;;;;;4965921;28;20108;-64
2023/03/18 08:53:19;;;;;;;9.65;3.15;;;;;;;;;;4985733;28;20046;-65
2023/03/18 08:55:46;;;;;;;12.93;3.35;;;;;;;;;;4983166;28;20133;-62
2023/03/18 08:58:12;;;;;;;7.78;2.80;;;;;;;;;;4962971;28;20061;-65
2023/03/18 09:00:40;;;;;;;13.65;3.25;;;;;;;;;;4986959;28;20073;-65
2023/03/18 09:03:27;;;;;;;13.13;3.80;;;;;;;;;;4981457;28;20051;-65
2023/03/18 09:07:06;;;;;;;11.15;3.63;;;;;;;;;;4983587;28;20142;-64
2023/03/18 09:10:47;;;;;;;11.27;4.25;;;;;;;;;;4975884;28;20133;-63
2023/03/18 09:14:30;;;;;;;9.60;3.25;;;;;;;;;;4984134;28;20058;-63
2023/03/18 09:17:52;;;;;;;17.08;5.93;;;;;;;;;;4985171;28;20116;-65
2023/03/18 09:20:18;;;;;;;22.75;5.93;;;;;;;;;;4965489;28;20124;-65
2023/03/18 09:22:46;;;;;;;16.35;4.43;;;;;;;;;;4972217;28;20503;-64
2023/03/18 09:25:12;;;;;;;15.20;5.70;;;;;;;;;;4983878;28;20561;-64
2023/03/18 09:27:38;;;;;;;14.90;6.03;;;;;;;;;;4988097;28;20054;-63
2023/03/18 09:30:06;;;;;;;10.73;4.35;;;;;;;;;;4986039;28;20276;-65
2023/03/18 09:32:34;;;;;;;13.70;4.88;;;;;;;;;;4965946;28;20050;-65
2023/03/18 09:35:04;;;;;;;8.18;3.50;;;;;;;;;;4987689;28;20074;-67
2023/03/18 09:37:30;;;;;;;11.35;3.65;;;;;;;;;;4986610;28;20122;-67
2023/03/18 09:39:57;;;;;;;9.75;3.22;;;;;;;;;;4985256;28;20061;-66
2023/03/18 09:42:31;;;;;;;9.40;2.13;;;;;;;;;;4981147;28;20046;-69
2023/03/18 09:45:04;;;;;;;5.05;1.88;;;;;;;;;;4987373;28;20096;-67
2023/03/18 09:48:11;;;;;;;3.40;1.60;;;;;;;;;;4975543;28;20069;-66
2023/03/18 09:51:03;;;;;;;9.65;2.08;;;;;;;;;;4937293;28;20527;-67
2023/03/18 09:53:53;;;;;;;5.38;1.42;;;;;;;;;;4945830;28;20600;-68
2023/03/18 09:56:25;;;;;;;4.38;1.25;;;;;;;;;;4937279;28;20074;-65
2023/03/18 09:59:04;;;;;;;8.20;1.98;;;;;;;;;;4943940;28;20048;-67
2023/03/18 10:01:36;;;;;;;4.25;1.40;;;;;;;;;;4942322;28;20571;-64
2023/03/18 10:04:10;;;;;;;4.22;1.30;;;;;;;;;;4932761;28;20055;-66
2023/03/18 10:06:37;;;;;;;;;;;;;;;;;;4939661;28;20059;-69
2023/03/18 10:09:18;;;;;;;9.05;1.25;;;;;;;;;;4943512;28;19922;-64
2023/03/18 10:11:47;;;;;;;7.53;1.40;;;;;;;;;;4942896;28;20059;-64
2023/03/18 10:14:23;;;;;;;5.28;1.98;;;;;;;;;;4942875;28;20688;-65
2023/03/18 10:17:12;;;;;;;10.77;1.75;;;;;;;;;;4927562;29;20047;-67
2023/03/18 10:20:06;;;;;;;9.57;1.40;;;;;;;;;;4922034;28;20050;-63
2023/03/18 10:22:47;;;;;;;8.50;1.60;;;;;;;;;;4943179;28;20067;-62
2023/03/18 10:25:34;;;;;;;4.10;1.38;;;;;;;;;;4938362;28;20170;-65
2023/03/18 10:28:29;;;;;;;6.70;1.25;;;;;;;;;;4972959;28;20046;-64
2023/03/18 10:31:32;;;;;;;7.03;1.10;;;;;;;;;;4972120;28;20054;-63
2023/03/18 10:34:10;;;;;;;4.57;0.93;;;;;;;;;;4968159;28;20422;-65
2023/03/18 10:37:13;;;;;;;5.80;1.17;;;;;;;;;;4975026;28;20054;-63
2023/03/18 10:39:40;;;;;;;7.38;1.20;;;;;;;;;;4981186;28;20054;-66
2023/03/18 10:43:00;;;;;;;5.68;1.02;;;;;;;;;;4984782;28;20057;-69
2023/03/18 10:46:45;;;;;;;9.57;1.10;;;;;;;;;;4985345;28;20860;-63
2023/03/18 10:50:24;;;;;;;11.70;1.77;;;;;;;;;;4983201;28;20042;-64
2023/03/18 10:54:23;;;;;;;7.18;2.05;;;;;;;;;;4977508;28;20069;-65
2023/03/18 10:58:03;;;;;;;1.23;0.70;;;;;;;;;;4977469;28;20498;-62
2023/03/18 11:01:45;;;;;;;2.38;0.90;;;;;;;;;;4976546;28;20303;-64
2023/03/18 11:05:40;;;;;;;8.05;1.42;;;;;;;;;;4976971;28;20398;-64
2023/03/18 11:09:21;;;;;;;6.43;1.40;;;;;;;;;;4973796;28;20054;-65
2023/03/18 11:13:06;;;;;;;4.20;1.00;;;;;;;;;;4976849;28;20498;-65
2023/03/18 11:19:08;;;;;;;5.65;1.75;;;;;;;;;;4572121;27;16978483;-69
2023/03/18 11:22:12;;;;;;;5.25;1.60;;;;;;;;;;5157695;27;20513;-67
2023/03/18 11:25:54;;;;;;;5.97;1.10;;;;;;;;;;5154644;27;20050;-66
2023/03/18 11:29:38;;;;;;;4.75;1.10;;;;;;;;;;5156307;27;20057;-66
2023/03/18 11:33:18;;;;;;;3.20;1.30;;;;;;;;;;5155434;27;20046;-66
2023/03/18 11:37:00;;;;;;;4.90;1.60;;;;;;;;;;5157589;27;20048;-64
2023/03/18 11:40:39;;;;;;;4.40;1.10;;;;;;;;;;5156594;27;20042;-66
2023/03/18 11:44:24;;;;;;;7.55;1.40;;;;;;;;;;5154047;27;20050;-66
2023/03/18 11:48:04;;;;;;;3.50;1.27;;;;;;;;;;5161068;27;20042;-65
2023/03/18 11:51:25;;;;;;;5.32;1.35;;;;;;;;;;5151830;27;20287;-64
2023/03/18 11:54:43;;;;;;;7.03;1.30;;;;;;;;;;5142964;27;20501;-66
2023/03/18 11:58:02;;;;;;;5.78;1.20;;;;;;;;;;5150486;27;20137;-64
2023/03/18 12:01:41;;;;;;;3.10;1.05;;;;;;;;;;5161696;27;20095;-66
2023/03/18 12:04:53;;;;;;;8.20;1.50;;;;;;;;;;5148183;27;20056;-65
2023/03/18 12:08:22;;;;;;;6.43;1.30;;;;;;;;;;5151971;27;20046;-66
2023/03/18 12:11:43;;;;;;;6.75;1.35;;;;;;;;;;5157481;27;20074;-65
2023/03/18 12:15:04;;;;;;;2.65;1.25;;;;;;;;;;5155333;27;20045;-64
2023/03/18 12:18:37;;;;;;;4.03;1.35;;;;;;;;;;5152866;27;20618;-65
2023/03/18 12:21:53;;;;;;;3.40;1.10;;;;;;;;;;5141352;27;20055;-65
2023/03/18 12:25:32;;;;;;;7.05;1.30;;;;;;;;;;5151978;27;20398;-63
2023/03/18 12:29:01;;;;;;;3.30;1.10;;;;;;;;;;5148047;27;20543;-63
2023/03/18 12:32:28;;;;;;;3.67;1.17;;;;;;;;;;5138204;27;20477;-65
2023/03/18 12:36:04;;;;;;;3.13;1.00;;;;;;;;;;5148521;27;20137;-64
2023/03/18 12:39:23;;;;;;;10.02;1.30;;;;;;;;;;5145356;27;20047;-65
2023/03/18 12:42:52;;;;;;;2.90;1.23;;;;;;;;;;5148908;27;20102;-64
2023/03/18 12:46:49;;;;;;;3.03;1.17;;;;;;;;;;5139144;27;20057;-62
2023/03/18 12:50:33;;;;;;;4.15;1.20;;;;;;;;;;5144416;27;20050;-68
2023/03/18 12:54:14;;;;;;;6.32;1.33;;;;;;;;;;5137942;27;20051;-64
2023/03/18 12:57:37;;;;;;;3.50;1.20;;;;;;;;;;5145061;27;20041;-64
2023/03/18 13:01:30;;;;;;;3.67;1.38;;;;;;;;;;5131966;27;20120;-62
2023/03/18 13:05:11;;;;;;;3.90;1.83;;;;;;;;;;5125129;27;20482;-65
2023/03/18 13:08:27;;;;;;;3.10;1.50;;;;;;;;;;5139845;27;20218;-66
2023/03/18 13:11:11;;;;;;;4.97;1.27;;;;;;;;;;5140762;27;20069;-66
2023/03/18 13:13:42;;;;;;;2.37;0.90;;;;;;;;;;5144371;27;20047;-66
2023/03/18 13:16:10;;;;;;;6.03;2.30;;;;;;;;;;5144637;27;20094;-67
2023/03/18 13:18:50;;;;;;;5.15;1.90;;;;;;;;;;5125323;27;20047;-67
2023/03/18 13:21:21;;;;;;;3.63;2.03;;;;;;;;;;5141909;27;20700;-70
2023/03/18 13:23:50;;;;;;;4.35;1.45;;;;;;;;;;5101145;27;20045;-67
2023/03/18 13:26:47;;;;;;;5.70;1.70;;;;;;;;;;5146379;27;20122;-65
2023/03/18 13:29:53;;;;;;;4.60;1.42;;;;;;;;;;5137475;27;20058;-66
2023/03/18 13:32:41;;;;;;;5.97;1.15;;;;;;;;;;5067657;28;20059;-69
2023/03/18 13:35:38;;;;;;;4.78;1.48;;;;;;;;;;5079199;28;20035;-67
2023/03/18 13:38:26;;;;;;;4.45;1.25;;;;;;;;;;5080511;28;20052;-65
2023/03/18 13:41:06;;;;;;;3.53;1.13;;;;;;;;;;5076432;28;20488;-66
2023/03/18 13:43:36;;;;;;;3.42;0.85;;;;;;;;;;5079660;28;20049;-66
2023/03/18 13:46:02;;;;;;;3.38;0.82;;;;;;;;;;5057580;28;20044;-66
2023/03/18 13:48:30;;;;;;;5.80;1.23;;;;;;;;;;5077317;28;20049;-67
2023/03/18 13:51:16;;;;;;;3.65;1.20;;;;;;;;;;5082141;28;20292;-65
2023/03/18 13:53:42;;;;;;;4.18;1.75;;;;;;;;;;5080420;28;20432;-70
2023/03/18 13:56:31;;;;;;;3.20;1.20;;;;;;;;;;5083813;28;20044;-66
2023/03/18 13:59:06;;;;;;;2.50;0.95;;;;;;;;;;5080799;28;20044;-66
2023/03/18 14:01:35;;;;;;;5.45;1.20;;;;;;;;;;5083280;28;20059;-67
2023/03/18 14:04:30;;;;;;;4.50;1.20;;;;;;;;;;5079362;28;20130;-66
2023/03/18 14:07:18;;;;;;;1.83;1.02;;;;;;;;;;5076521;28;20519;-69
2023/03/18 14:10:17;;;;;;;5.05;1.08;;;;;;;;;;5133188;27;20083;-67
2023/03/18 14:12:49;;;;;;;3.15;0.95;;;;;;;;;;5108408;27;20043;-69
2023/03/18 14:15:38;;;;;;;1.67;0.70;;;;;;;;;;5141485;27;20390;-66
2023/03/18 14:18:23;;;;;;;2.30;1.08;;;;;;;;;;5128476;27;20156;-68
2023/03/18 14:20:54;;;;;;;3.28;1.08;;;;;;;;;;5138029;27;20034;-67
2023/03/18 14:23:32;;;;;;;5.18;1.00;;;;;;;;;;5144842;27;20124;-64
2023/03/18 14:26:18;;;;;;;2.08;1.10;;;;;;;;;;5143181;27;20034;-67
2023/03/18 14:29:16;;;;;;;3.83;0.85;;;;;;;;;;5138023;27;20129;-69
2023/03/18 14:32:09;;;;;;;5.03;0.90;;;;;;;;;;5134294;27;20499;-68
2023/03/18 14:35:23;;;;;;;3.17;1.05;;;;;;;;;;5138557;27;20042;-68
2023/03/18 14:38:39;;;;;;;2.05;0.73;;;;;;;;;;5143529;27;20063;-70
2023/03/18 14:42:19;;;;;;;5.35;1.40;;;;;;;;;;5140633;27;20319;-69
2023/03/18 14:45:27;;;;;;;1.63;0.75;;;;;;;;;;5137713;27;20039;-68
2023/03/18 14:47:56;;;;;;;2.75;1.00;;;;;;;;;;5127234;27;20050;-69
2023/03/18 14:50:46;;;;;;;2.60;0.90;;;;;;;;;;5148251;27;20383;-66
2023/03/18 14:53:30;;;;;;;2.17;0.90;;;;;;;;;;5132228;27;20038;-68
2023/03/18 14:55:57;;;;;;;4.25;1.42;;;;;;;;;;5146635;27;20057;-69
2023/03/18 14:58:25;;;;;;;7.00;1.17;;;;;;;;;;5144552;27;20050;-67
2023/03/18 15:01:07;;;;;;;1.73;1.00;;;;;;;;;;5142846;27;20070;-67
2023/03/18 15:03:34;;;;;;;2.47;0.90;;;;;;;;;;5138931;27;20498;-65
2023/03/18 15:06:03;;;;;;;3.90;1.20;;;;;;;;;;5142892;27;20034;-68
2023/03/18 15:08:33;;;;;;;10.65;1.98;;;;;;;;;;5127385;27;20331;-67
2023/03/18 15:11:04;;;;;;;4.13;1.23;;;;;;;;;;5139070;27;20053;-66
2023/03/18 15:13:30;;;;;;;4.20;1.00;;;;;;;;;;5146329;27;20066;-65
2023/03/18 15:15:56;;;;;;;3.35;0.82;;;;;;;;;;5123913;27;20046;-66
2023/03/18 15:18:27;;;;;;;5.55;0.90;;;;;;;;;;5140476;27;20370;-68
2023/03/18 15:21:21;;;;;;;4.13;1.00;;;;;;;;;;5146081;27;20081;-67
2023/03/18 15:25:03;;;;;;;1.85;0.75;;;;;;;;;;5139207;27;20470;-66
2023/03/18 15:28:44;;;;;;;4.70;1.67;;;;;;;;;;5134982;27;20041;-67
2023/03/18 15:32:25;;;;;;;9.57;2.75;;;;;;;;;;5145055;27;20042;-70
2023/03/18 15:36:05;;;;;;;11.85;3.67;;;;;;;;;;5142666;27;20043;-68
2023/03/18 15:39:58;;;;;;;23.80;3.92;;;;;;;;;;5140085;27;20428;-70
2023/03/18 15:43:52;;;;;;;23.40;4.15;;;;;;;;;;5137025;27;20046;-69
2023/03/18 15:47:44;;;;;;;20.38;3.80;;;;;;;;;;5145742;27;20047;-67
2023/03/18 15:51:29;;;;;;;18.77;3.60;;;;;;;;;;5142777;27;20072;-66
2023/03/18 15:55:09;;;;;;;16.17;3.80;;;;;;;;;;5136573;27;20039;-67
2023/03/18 15:58:52;;;;;;;11.07;3.47;;;;;;;;;;5134457;27;20056;-69
2023/03/18 16:02:33;;;;;;;19.45;4.22;;;;;;;;;;5139942;27;20468;-67
2023/03/18 16:06:17;;;;;;;15.93;3.92;;;;;;;;;;5139494;27;20235;-67
2023/03/18 16:09:58;;;;;;;9.55;3.38;;;;;;;;;;5143075;27;20042;-69
2023/03/18 16:13:38;;;;;;;14.65;3.90;;;;;;;;;;5150663;27;20253;-67
2023/03/18 16:17:20;;;;;;;10.45;3.55;;;;;;;;;;5148262;27;20090;-66
2023/03/18 16:21:07;;;;;;;14.35;3.70;;;;;;;;;;5144424;27;20087;-67
2023/03/18 16:24:48;;;;;;;10.98;3.20;;;;;;;;;;5144548;27;20039;-68
2023/03/18 16:28:29;;;;;;;10.20;3.78;;;;;;;;;;5140436;27;20039;-67
2023/03/18 16:32:10;;;;;;;13.40;3.20;;;;;;;;;;5142065;27;20047;-69
2023/03/18 16:35:53;;;;;;;9.80;3.63;;;;;;;;;;5136985;27;20038;-68
2023/03/18 16:39:18;;;;;;;11.68;3.15;;;;;;;;;;5140110;27;20108;-68
2023/03/18 16:42:26;;;;;;;17.15;3.60;;;;;;;;;;5147555;27;20138;-66
2023/03/18 16:46:05;;;;;;;17.17;4.63;;;;;;;;;;5144894;27;20045;-69
2023/03/18 16:49:45;;;;;;;14.30;4.70;;;;;;;;;;5138669;27;20490;-68
2023/03/18 16:53:32;;;;;;;23.00;5.50;;;;;;;;;;5139054;27;20050;-66
2023/03/18 16:57:15;;;;;;;23.33;6.18;;;;;;;;;;5138727;27;20038;-66
2023/03/18 17:00:56;;;;;;;24.48;5.05;;;;;;;;;;5137107;27;20062;-65
2023/03/18 17:04:36;;;;;;;20.27;5.38;;;;;;;;;;5144916;27;20038;-66
2023/03/18 17:08:17;;;;;;;21.23;5.28;;;;;;;;;;5141287;27;20389;-67
2023/03/18 17:11:57;;;;;;;11.45;5.13;;;;;;;;;;5141280;27;20104;-68
2023/03/18 17:15:37;;;;;;;19.88;6.57;;;;;;;;;;5143043;27;20072;-68
2023/03/18 17:19:21;;;;;;;19.25;5.30;;;;;;;;;;5142575;27;20055;-67
2023/03/18 17:22:58;;;;;;;17.00;4.80;;;;;;;;;;5144530;27;20055;-68
2023/03/18 17:26:38;;;;;;;14.63;5.45;;;;;;;;;;5133950;27;20043;-67
2023/03/18 17:30:19;;;;;;;21.25;6.63;;;;;;;;;;5141904;27;20057;-67
2023/03/18 17:33:39;;;;;;;17.90;6.00;;;;;;;;;;5141661;27;20047;-67
2023/03/18 17:37:20;;;;;;;14.18;6.10;;;;;;;;;;5143172;27;20053;-67
2023/03/18 17:41:00;;;;;;;23.25;7.22;;;;;;;;;;5139640;27;21807;-67
2023/03/18 17:44:40;;;;;;;17.48;6.22;;;;;;;;;;5139812;27;20385;-67
2023/03/18 17:48:11;;;;;;;20.25;7.10;;;;;;;;;;5136888;27;20042;-67
2023/03/18 17:51:53;;;;;;;20.17;7.28;;;;;;;;;;5139383;27;20425;-67
2023/03/18 17:55:34;;;;;;;17.95;6.45;;;;;;;;;;5137483;27;20494;-67
2023/03/18 17:59:15;;;;;;;16.80;8.02;;;;;;;;;;5135293;27;20478;-67
2023/03/18 18:02:57;;;;;;;24.80;7.13;;;;;;;;;;5144399;27;20043;-67
2023/03/18 18:06:38;;;;;;;16.42;6.57;;;;;;;;;;5134361;27;20481;-66
2023/03/18 18:10:19;;;;;;;17.80;6.38;;;;;;;;;;5144806;27;20426;-68
2023/03/18 18:14:00;;;;;;;14.38;6.28;;;;;;;;;;5140855;27;20445;-66
2023/03/18 18:17:42;;;;;;;13.18;6.32;;;;;;;;;;5141508;27;20138;-67
2023/03/18 18:21:23;;;;;;;20.13;7.35;;;;;;;;;;5141828;27;20047;-67
2023/03/18 18:25:02;;;;;;;17.95;7.20;;;;;;;;;;5135144;27;20042;-67
2023/03/18 18:28:43;;;;;;;15.90;6.40;;;;;;;;;;5140950;27;21995;-66
2023/03/18 18:32:25;;;;;;;13.95;6.75;;;;;;;;;;5132764;27;20047;-66
2023/03/18 18:36:07;;;;;;;20.33;8.07;;;;;;;;;;5133961;27;20042;-68
2023/03/18 18:39:47;;;;;;;24.75;11.80;;;;;;;;;;5139945;27;20060;-68
2023/03/18 18:43:27;;;;;;;18.35;7.70;;;;;;;;;;5134105;27;20398;-68
2023/03/18 18:47:08;;;;;;;18.70;8.65;;;;;;;;;;5139941;27;20035;-66
2023/03/18 18:50:48;;;;;;;12.90;6.70;;;;;;;;;;5134632;27;20043;-69
2023/03/18 18:53:52;;;;;;;16.52;8.45;;;;;;;;;;5134118;27;20133;-66
2023/03/18 18:56:38;;;;;;;18.35;8.15;;;;;;;;;;5136855;27;20051;-68
2023/03/18 18:59:21;;;;;;;18.25;6.63;;;;;;;;;;5132672;27;20666;-65
2023/03/18 19:01:52;;;;;;;21.50;8.50;;;;;;;;;;5142747;27;20081;-66
2023/03/18 19:04:22;;;;;;;28.30;10.05;;;;;;;;;;5133293;27;20058;-68
2023/03/18 19:06:50;;;;;;;24.98;8.38;;;;;;;;;;5134374;27;20050;-67
2023/03/18 19:09:23;;;;;;;23.48;9.00;;;;;;;;;;5137268;27;20070;-67
2023/03/18 19:11:50;;;;;;;18.02;7.10;;;;;;;;;;5143720;27;20069;-65
2023/03/18 19:14:23;;;;;;;19.20;7.68;;;;;;;;;;5142674;27;20046;-66
2023/03/18 19:16:52;;;;;;;19.88;7.55;;;;;;;;;;5133205;27;20567;-64
2023/03/18 19:19:21;;;;;;;22.25;10.45;;;;;;;;;;5143067;27;20069;-68
2023/03/18 19:21:49;;;;;;;17.77;6.40;;;;;;;;;;5125993;27;20046;-67
2023/03/18 19:24:25;;;;;;;22.73;6.80;;;;;;;;;;5140143;27;20125;-68
2023/03/18 19:26:57;;;;;;;14.48;6.57;;;;;;;;;;5135849;27;20043;-70
2023/03/18 19:29:23;;;;;;;18.38;7.65;;;;;;;;;;5139128;27;20042;-68
2023/03/18 19:31:53;;;;;;;20.08;6.93;;;;;;;;;;5142456;27;20053;-69
2023/03/18 19:34:20;;;;;;;20.95;9.77;;;;;;;;;;5143486;27;20051;-73
2023/03/18 19:36:48;;;;;;;24.42;11.43;;;;;;;;;;5144822;27;20398;-70
2023/03/18 19:39:18;;;;;;;16.02;7.80;;;;;;;;;;5130362;27;20035;-66
2023/03/18 19:41:50;;;;;;;16.95;8.32;;;;;;;;;;5144935;27;20059;-68
2023/03/18 19:44:19;;;;;;;15.60;6.75;;;;;;;;;;5140962;27;20046;-70
2023/03/18 19:46:46;;;;;;;13.93;6.78;;;;;;;;;;5144706;27;20051;-69
2023/03/18 19:49:25;;;;;;;19.27;7.78;;;;;;;;;;5144012;27;20051;-69
2023/03/18 19:51:52;;;;;;;16.48;8.02;;;;;;;;;;5126571;27;20068;-69